首页
METAR-TAF:

METAR-TAF

机场 :

伯明翰-沙特尔斯沃思国际机场

伯明翰, 阿拉巴马州, 美国

纬度: 33-33-56N, 经度: 086-44-42W, 海拔: 196米

当前天气观测

该预报发布于1小时和9分钟前的16:53 UTC
静风
温度 33°C
湿度 53%
气压 1019 hPa
能見度: 16.1公里
散云层高于4600英尺

METAR: KBHM 151653Z 00000KT 10SM SCT046 33/22 A3010 RMK AO2 SLP182 T03280217

时间: 13:02 (18:02 UTC)

预报

该预报发布于42分钟前的17:20 UTC
预报有效从15日的 18点(UTC)到 16日的 18点(UTC)
风速4节,风向
能見度: 10公里
少量云层高于4000英尺
散云层高于4500英尺
从 16日的 0400点(UTC)
风速3节,风向多变
能見度: 10公里
少量云层高于4000英尺
少量云层高于10000英尺
从 16日的 1300点(UTC)
风速3节,风向多变
能見度: 10公里
少量云层高于3500英尺
散云层高于8000英尺
从 16日的 1600点(UTC)
风速5节,风向
能見度: 10公里
少量云层高于4000英尺
散云层高于10000英尺

TAF: KBHM 151720Z 1518/1618 17004KT P6SM FEW040 SCT045 FM160400 VRB03KT P6SM FEW040 FEW100 FM161300 VRB03KT P6SM FEW035 SCT080 FM161600 19005KT P6SM FEW040 SCT100

超过4000个机场的气象观测和天气预报(METAR&TAF报告)。

可查询的气象台以黄色和红色小点在地图上表示。

将鼠标移到小点上方,可查看气象台名称。

然后点击查看天气观测和预报。

如需切换地图:点击带黑十字的绿色按钮放大地图;点击带横线的绿色按钮缩小地图;或者点击绿色箭头查看邻近地区的地图。


METAR-TAF: